createdAt,value
2023-04-12T00:02:47.305Z,12.00
2023-04-12T00:12:53.349Z,16.70
2023-04-12T00:22:58.951Z,13.60
2023-04-12T00:33:04.959Z,15.60
2023-04-12T00:43:15.619Z,14.60
2023-04-12T00:53:22.120Z,15.40
2023-04-12T01:03:31.086Z,15.90
2023-04-12T01:13:41.094Z,12.40
2023-04-12T01:23:59.933Z,11.70
2023-04-12T01:34:06.244Z,12.50
2023-04-12T01:44:13.447Z,15.60
2023-04-12T02:04:28.004Z,11.00
2023-04-12T02:14:33.697Z,13.90
2023-04-12T02:24:39.594Z,14.00
2023-04-12T02:34:51.387Z,15.70
2023-04-12T02:44:57.377Z,12.20
2023-04-12T02:55:03.888Z,12.00
2023-04-12T03:05:11.028Z,13.00
2023-04-12T03:15:18.082Z,11.10
2023-04-12T03:25:23.871Z,12.60
2023-04-12T03:35:29.523Z,12.20
2023-04-12T03:45:35.437Z,12.50
2023-04-12T03:55:41.499Z,12.50
2023-04-12T04:05:47.556Z,13.00
2023-04-12T04:16:03.576Z,15.60
2023-04-12T04:26:10.838Z,16.00
2023-04-12T04:46:22.624Z,16.70
2023-04-12T04:56:28.711Z,16.80
2023-04-12T05:06:34.516Z,17.30
2023-04-12T05:16:40.330Z,14.80
2023-04-12T05:26:47.239Z,15.10
2023-04-12T05:36:53.307Z,14.60
2023-04-12T05:46:59.224Z,14.10
2023-04-12T05:57:05.184Z,16.40
2023-04-12T06:07:11.185Z,17.10
2023-04-12T06:17:16.949Z,19.50
2023-04-12T06:27:22.795Z,16.70
2023-04-12T06:37:28.509Z,21.10
2023-04-12T06:47:34.902Z,18.80
2023-04-12T06:57:42.641Z,22.90
2023-04-12T07:07:49.232Z,15.30
2023-04-12T07:17:54.856Z,17.20
2023-04-12T07:28:00.618Z,19.70
2023-04-12T07:38:06.287Z,20.90
2023-04-12T07:48:12.431Z,18.60
2023-04-12T07:58:18.909Z,15.10
2023-04-12T08:08:24.850Z,11.70
2023-04-12T08:18:31.378Z,11.60
2023-04-12T08:28:39.416Z,10.30
2023-04-12T08:38:46.385Z,11.00
2023-04-12T08:48:55.143Z,9.00
2023-04-12T08:59:01.967Z,8.90
2023-04-12T09:09:08.300Z,7.60
2023-04-12T09:19:14.195Z,8.10
2023-04-12T09:29:26.883Z,8.90
2023-04-12T09:39:37.139Z,8.40
2023-04-12T09:49:46.078Z,7.10
2023-04-12T09:59:54.144Z,7.60
2023-04-12T10:10:02.041Z,8.20
2023-04-12T10:20:10.345Z,9.80
2023-04-12T10:30:31.265Z,5.00
2023-04-12T10:40:38.624Z,8.60
2023-04-12T10:50:45.354Z,7.70
2023-04-12T11:01:13.380Z,7.50
2023-04-12T11:11:23.296Z,7.70
2023-04-12T11:21:29.586Z,8.00
2023-04-12T11:31:36.138Z,9.80
2023-04-12T11:41:47.277Z,13.20
2023-04-12T11:52:04.810Z,9.70
2023-04-12T12:02:22.852Z,12.00
2023-04-12T12:12:30.612Z,8.10
2023-04-12T12:22:37.175Z,9.30
2023-04-12T12:32:43.409Z,10.30
2023-04-12T12:42:52.077Z,15.00
2023-04-12T12:52:59.412Z,11.60
2023-04-12T13:03:05.825Z,9.70
2023-04-12T13:13:12.384Z,7.50
2023-04-12T13:23:18.662Z,11.10
2023-04-12T13:33:24.781Z,5.40
2023-04-12T13:43:31.081Z,6.10
2023-04-12T13:53:37.674Z,8.90
2023-04-12T14:03:44.064Z,8.00
2023-04-12T14:13:50.362Z,8.60
2023-04-12T14:23:56.806Z,7.00
2023-04-12T14:34:03.272Z,7.60
2023-04-12T14:44:09.487Z,7.50
2023-04-12T14:54:15.685Z,8.20
2023-04-12T15:04:22.189Z,9.20
2023-04-12T15:14:28.894Z,10.80
2023-04-12T15:24:35.044Z,8.60
2023-04-12T15:34:41.155Z,7.60
2023-04-12T15:44:47.470Z,6.90
2023-04-12T15:54:54.025Z,8.70
2023-04-12T16:05:00.885Z,8.40
2023-04-12T16:15:08.564Z,8.90
2023-04-12T16:25:14.982Z,11.40
2023-04-12T16:35:21.521Z,13.80
2023-04-12T16:45:28.164Z,18.20
2023-04-12T16:55:34.646Z,12.50
2023-04-12T17:05:41.264Z,14.30
2023-04-12T17:15:49.160Z,17.10
2023-04-12T17:25:56.350Z,13.30
2023-04-12T17:36:04.256Z,15.30
2023-04-12T17:46:10.958Z,15.50
2023-04-12T17:56:17.249Z,17.70
2023-04-12T18:06:24.188Z,17.90
2023-04-12T18:16:30.497Z,20.20
2023-04-12T18:26:36.816Z,21.90
2023-04-12T18:36:43.221Z,18.90
2023-04-12T18:46:49.589Z,16.30
2023-04-12T18:56:57.979Z,19.30
2023-04-12T19:07:04.114Z,21.40
2023-04-12T19:17:10.852Z,27.00
2023-04-12T19:27:17.463Z,25.40
2023-04-12T19:37:24.874Z,26.20
2023-04-12T19:47:30.683Z,28.20
2023-04-12T19:57:38.120Z,28.50
2023-04-12T20:07:44.412Z,32.10
2023-04-12T20:17:52.067Z,39.30
2023-04-12T20:27:58.969Z,29.30
2023-04-12T20:38:05.431Z,39.40
2023-04-12T20:48:11.716Z,35.30
2023-04-12T20:58:19.225Z,34.70
2023-04-12T21:08:25.363Z,32.60
2023-04-12T21:18:34.241Z,32.90
2023-04-12T21:28:40.650Z,31.50
2023-04-12T21:38:46.441Z,32.70
2023-04-12T21:48:52.838Z,30.80
2023-04-12T21:59:00.141Z,26.30
2023-04-12T22:09:06.079Z,29.40
2023-04-12T22:19:12.879Z,25.80
2023-04-12T22:29:18.767Z,33.40
2023-04-12T22:39:24.616Z,25.40
2023-04-12T22:49:30.559Z,26.70
2023-04-12T22:59:36.435Z,27.40
2023-04-12T23:09:42.561Z,28.80
2023-04-12T23:19:50.467Z,28.10
2023-04-12T23:29:56.156Z,24.50
2023-04-12T23:40:06.935Z,23.00
2023-04-12T23:50:13.530Z,26.30
